createdAt,value
2022-08-19T00:01:39.593Z,41.36
2022-08-19T00:04:42.995Z,40.99
2022-08-19T00:07:46.743Z,41.36
2022-08-19T00:10:51.480Z,41.74
2022-08-19T00:13:56.324Z,42.17
2022-08-19T00:17:00.238Z,41.83
2022-08-19T00:20:04.298Z,41.63
2022-08-19T00:23:07.788Z,41.49
2022-08-19T00:26:13.146Z,41.17
2022-08-19T00:29:20.143Z,41.53
2022-08-19T00:32:24.009Z,41.89
2022-08-19T00:35:28.803Z,42.00
2022-08-19T00:38:37.578Z,42.05
2022-08-19T00:41:45.348Z,42.47
2022-08-19T00:44:51.609Z,42.70
2022-08-19T00:47:54.869Z,42.44
2022-08-19T00:50:58.178Z,42.48
2022-08-19T00:54:04.023Z,42.30
2022-08-19T00:57:14.122Z,42.40
2022-08-19T01:00:21.316Z,42.02
2022-08-19T01:03:25.095Z,42.58
2022-08-19T01:06:29.160Z,42.19
2022-08-19T01:09:33.215Z,41.46
2022-08-19T01:12:38.615Z,42.04
2022-08-19T01:15:45.860Z,41.75
2022-08-19T01:18:50.231Z,42.44
2022-08-19T01:21:59.512Z,41.87
2022-08-19T01:25:15.004Z,42.49
2022-08-19T01:28:33.864Z,42.65
2022-08-19T01:31:43.476Z,43.68
2022-08-19T01:34:47.863Z,43.70
2022-08-19T01:37:53.664Z,43.70
2022-08-19T01:40:58.457Z,43.33
2022-08-19T01:44:13.806Z,43.23
2022-08-19T01:47:22.310Z,43.38
2022-08-19T01:50:26.856Z,43.90
2022-08-19T01:53:30.604Z,45.07
2022-08-19T01:56:39.374Z,45.90
2022-08-19T01:59:45.086Z,46.33
2022-08-19T02:02:48.995Z,46.79
2022-08-19T02:05:57.936Z,46.57
2022-08-19T02:09:01.665Z,46.11
2022-08-19T02:12:06.813Z,46.07
2022-08-19T02:15:10.940Z,46.70
2022-08-19T02:18:14.946Z,46.45
2022-08-19T02:21:19.610Z,46.56
2022-08-19T02:24:22.973Z,46.34
2022-08-19T02:27:27.671Z,46.15
2022-08-19T02:30:31.081Z,46.37
2022-08-19T02:33:34.420Z,46.84
2022-08-19T02:36:37.795Z,46.60
2022-08-19T02:39:44.984Z,45.82
2022-08-19T02:42:49.735Z,46.07
2022-08-19T02:45:53.785Z,46.60
2022-08-19T02:49:00.464Z,45.94
2022-08-19T02:52:04.909Z,45.84
2022-08-19T02:55:09.301Z,46.28
2022-08-19T02:58:14.415Z,45.67
2022-08-19T03:01:23.767Z,46.06
2022-08-19T03:04:27.288Z,45.61
2022-08-19T03:07:31.522Z,45.14
2022-08-19T03:10:34.924Z,45.49
2022-08-19T03:13:39.724Z,45.82
2022-08-19T03:16:45.144Z,45.78
2022-08-19T03:19:48.488Z,46.51
2022-08-19T03:22:51.934Z,46.41
2022-08-19T03:26:02.806Z,46.77
2022-08-19T03:29:30.272Z,46.39
2022-08-19T03:32:34.470Z,46.01
2022-08-19T03:35:38.507Z,45.58
2022-08-19T03:38:45.068Z,45.71
2022-08-19T03:42:30.067Z,45.90
2022-08-19T03:45:15.830Z,45.63
2022-08-19T03:48:19.190Z,46.94
2022-08-19T03:51:30.866Z,48.30
2022-08-19T03:54:36.749Z,47.24
2022-08-19T03:57:40.077Z,48.65
2022-08-19T04:00:46.129Z,47.47
2022-08-19T04:03:51.241Z,46.53
2022-08-19T04:06:54.826Z,46.57
2022-08-19T04:09:58.117Z,45.59
2022-08-19T04:13:01.444Z,45.63
2022-08-19T04:16:06.813Z,47.17
2022-08-19T04:19:10.221Z,47.28
2022-08-19T04:22:13.671Z,46.84
2022-08-19T04:25:18.343Z,47.48
2022-08-19T04:28:21.950Z,46.87
2022-08-19T04:31:28.867Z,47.73
2022-08-19T04:34:32.279Z,47.03
2022-08-19T04:37:35.911Z,46.70
2022-08-19T04:41:00.578Z,46.40
2022-08-19T04:44:04.735Z,45.68
2022-08-19T04:47:10.879Z,45.65
2022-08-19T04:50:15.202Z,46.08
2022-08-19T04:53:22.189Z,46.14
2022-08-19T04:56:27.356Z,47.99
2022-08-19T04:59:30.688Z,45.40
2022-08-19T05:02:35.410Z,44.38
2022-08-19T05:05:45.315Z,44.30
2022-08-19T05:08:50.019Z,43.56
2022-08-19T05:11:54.646Z,42.95
2022-08-19T05:14:58.936Z,42.81
2022-08-19T05:18:35.640Z,42.42
2022-08-19T05:21:56.787Z,41.95
2022-08-19T05:25:12.298Z,41.08
2022-08-19T05:28:16.593Z,40.68
2022-08-19T05:31:19.920Z,39.54
2022-08-19T05:34:27.204Z,40.27
2022-08-19T05:37:30.542Z,39.95
2022-08-19T05:40:37.082Z,40.01
2022-08-19T05:43:40.420Z,40.17
2022-08-19T05:46:48.026Z,40.22
2022-08-19T05:49:52.789Z,40.24
2022-08-19T05:52:56.400Z,40.28
2022-08-19T05:55:59.834Z,39.63
2022-08-19T05:59:03.180Z,39.16
2022-08-19T06:02:08.638Z,38.87
2022-08-19T06:05:13.958Z,39.23
2022-08-19T06:08:19.609Z,38.59
2022-08-19T06:11:25.194Z,37.74
2022-08-19T06:14:31.659Z,37.10
2022-08-19T06:17:36.896Z,37.27
2022-08-19T06:20:55.386Z,36.84
2022-08-19T06:24:00.349Z,36.75
2022-08-19T06:27:04.055Z,35.99
2022-08-19T06:30:08.709Z,35.83
2022-08-19T06:33:11.981Z,36.75
2022-08-19T06:36:22.028Z,36.19
2022-08-19T06:39:30.875Z,35.62
2022-08-19T06:42:34.251Z,35.81
2022-08-19T06:45:40.507Z,35.30
2022-08-19T06:48:45.794Z,35.34
2022-08-19T06:51:51.745Z,34.99
2022-08-19T06:54:56.931Z,34.96
2022-08-19T06:58:04.854Z,35.21
2022-08-19T07:01:09.683Z,35.72
2022-08-19T07:04:12.998Z,34.98
2022-08-19T07:07:20.949Z,35.12
2022-08-19T07:10:25.851Z,36.63
2022-08-19T07:13:29.310Z,35.82
2022-08-19T07:16:32.919Z,35.07
2022-08-19T07:19:37.884Z,35.67
2022-08-19T07:22:43.024Z,34.49
2022-08-19T07:25:53.077Z,34.95
2022-08-19T07:28:57.292Z,34.81
2022-08-19T07:32:01.866Z,34.31
2022-08-19T07:35:06.375Z,34.66
2022-08-19T07:38:11.442Z,33.45
2022-08-19T07:41:17.541Z,32.74
2022-08-19T07:44:22.516Z,32.43
2022-08-19T07:47:47.748Z,32.22
2022-08-19T07:50:49.526Z,31.65
2022-08-19T07:53:54.418Z,33.05
2022-08-19T07:56:58.031Z,32.28
2022-08-19T08:00:01.568Z,31.66
2022-08-19T08:03:16.750Z,31.55
2022-08-19T08:06:37.658Z,30.95
2022-08-19T08:09:49.514Z,31.04
2022-08-19T08:13:09.254Z,31.29
2022-08-19T08:16:14.147Z,31.16
2022-08-19T08:19:25.414Z,31.39
2022-08-19T08:22:46.399Z,31.14
2022-08-19T08:25:51.714Z,30.32
2022-08-19T08:28:55.908Z,31.01
2022-08-19T08:32:00.255Z,31.10
2022-08-19T08:35:03.891Z,30.86
2022-08-19T08:38:07.201Z,30.34
2022-08-19T08:41:23.811Z,30.45
2022-08-19T08:44:42.183Z,30.35
2022-08-19T08:47:50.005Z,30.32
2022-08-19T08:50:58.468Z,29.83
2022-08-19T08:54:01.831Z,29.61
2022-08-19T08:57:13.705Z,29.73
2022-08-19T09:00:19.872Z,29.46
2022-08-19T09:03:25.671Z,29.91
2022-08-19T09:06:38.047Z,29.67
2022-08-19T09:09:47.529Z,28.70
2022-08-19T09:13:02.048Z,28.06
2022-08-19T09:16:16.914Z,28.27
2022-08-19T09:19:22.261Z,28.53
2022-08-19T09:22:28.015Z,27.62
2022-08-19T09:25:31.930Z,28.11
2022-08-19T09:28:38.100Z,28.73
2022-08-19T09:31:42.468Z,28.16
2022-08-19T09:34:50.812Z,26.99
2022-08-19T09:37:57.719Z,27.38
2022-08-19T09:41:07.409Z,27.06
2022-08-19T09:44:13.084Z,27.09
2022-08-19T09:47:16.879Z,26.78
2022-08-19T09:50:25.410Z,26.78
2022-08-19T09:53:29.902Z,26.44
2022-08-19T09:56:35.447Z,25.87
2022-08-19T09:59:41.509Z,26.45
2022-08-19T10:02:45.646Z,25.15
2022-08-19T10:05:54.485Z,25.68
2022-08-19T10:08:58.719Z,25.01
2022-08-19T10:12:02.932Z,25.32
2022-08-19T10:15:09.435Z,25.57
2022-08-19T10:18:13.319Z,25.07
2022-08-19T10:21:19.185Z,25.45
2022-08-19T10:24:25.320Z,24.92
2022-08-19T10:27:28.847Z,25.13
2022-08-19T10:30:38.041Z,24.58
2022-08-19T10:33:53.447Z,24.68
2022-08-19T10:37:01.078Z,24.80
2022-08-19T10:40:07.061Z,24.07
2022-08-19T10:43:10.434Z,24.58
2022-08-19T10:46:17.492Z,24.17
2022-08-19T10:49:22.444Z,24.92
2022-08-19T10:52:35.214Z,24.89
2022-08-19T10:56:00.114Z,24.64
2022-08-19T10:59:04.035Z,24.22
2022-08-19T11:02:12.628Z,24.23
2022-08-19T11:05:16.148Z,24.44
2022-08-19T11:08:23.131Z,24.11
2022-08-19T11:11:27.217Z,24.08
2022-08-19T11:14:32.132Z,24.37
2022-08-19T11:17:41.719Z,23.41
2022-08-19T11:20:44.995Z,23.80
2022-08-19T11:23:49.874Z,23.40
2022-08-19T11:26:57.968Z,23.55
2022-08-19T11:30:01.490Z,23.06
2022-08-19T11:33:06.294Z,23.68
2022-08-19T11:36:10.283Z,23.12
2022-08-19T11:39:20.672Z,22.89
2022-08-19T11:42:37.749Z,22.99
2022-08-19T11:45:40.983Z,23.06
2022-08-19T11:48:46.221Z,23.51
2022-08-19T11:51:51.296Z,24.20
2022-08-19T11:54:55.179Z,23.18
2022-08-19T11:57:58.933Z,23.08
2022-08-19T12:01:02.784Z,23.64
2022-08-19T12:04:07.584Z,23.68
2022-08-19T12:07:11.205Z,23.57
2022-08-19T12:10:15.514Z,23.65
2022-08-19T12:13:22.781Z,23.78
2022-08-19T12:16:29.526Z,23.32
2022-08-19T12:19:35.068Z,22.92
2022-08-19T12:22:39.324Z,22.91
2022-08-19T12:25:52.634Z,22.93
2022-08-19T12:28:56.257Z,22.96
2022-08-19T12:32:03.952Z,23.21
2022-08-19T12:35:12.433Z,23.50
2022-08-19T12:38:16.655Z,22.84
2022-08-19T12:41:22.320Z,23.05
2022-08-19T12:44:29.408Z,22.76
2022-08-19T12:47:33.019Z,23.44
2022-08-19T12:50:37.862Z,22.96
2022-08-19T12:53:41.279Z,22.85
2022-08-19T12:56:44.955Z,22.74
2022-08-19T12:59:48.258Z,22.58
2022-08-19T13:02:54.592Z,22.76
2022-08-19T13:05:59.344Z,22.94
2022-08-19T13:09:02.684Z,22.76
2022-08-19T13:12:08.791Z,22.92
2022-08-19T13:15:15.083Z,22.93
2022-08-19T13:18:18.756Z,22.18
2022-08-19T13:21:25.415Z,22.39
2022-08-19T13:24:33.507Z,22.93
2022-08-19T13:27:38.049Z,22.93
2022-08-19T13:30:58.547Z,23.02
2022-08-19T13:34:01.902Z,22.93
2022-08-19T13:37:07.313Z,23.09
2022-08-19T13:40:13.905Z,23.37
2022-08-19T13:43:23.451Z,23.47
2022-08-19T13:46:28.412Z,23.25
2022-08-19T13:49:32.038Z,23.09
2022-08-19T13:52:36.742Z,22.86
2022-08-19T13:55:40.966Z,23.21
2022-08-19T13:58:44.703Z,22.83
2022-08-19T14:01:48.145Z,22.78
2022-08-19T14:04:51.576Z,23.09
2022-08-19T14:07:57.248Z,23.45
2022-08-19T14:11:05.403Z,22.73
2022-08-19T14:14:12.250Z,22.73
2022-08-19T14:17:19.279Z,22.83
2022-08-19T14:20:26.041Z,23.03
2022-08-19T14:23:31.307Z,23.32
2022-08-19T14:26:34.717Z,23.12
2022-08-19T14:29:38.233Z,22.91
2022-08-19T14:32:41.564Z,23.07
2022-08-19T14:35:45.814Z,23.70
2022-08-19T14:38:51.101Z,22.61
2022-08-19T14:41:54.413Z,22.14
2022-08-19T14:45:00.727Z,23.22
2022-08-19T14:48:04.307Z,23.64
2022-08-19T14:51:08.258Z,22.97
2022-08-19T14:54:13.124Z,23.14
2022-08-19T14:57:16.909Z,23.46
2022-08-19T15:00:20.246Z,23.04
2022-08-19T15:03:23.548Z,23.38
2022-08-19T15:06:28.063Z,23.17
2022-08-19T15:09:33.178Z,22.93
2022-08-19T15:12:36.678Z,23.12
2022-08-19T15:15:40.130Z,23.30
2022-08-19T15:18:45.419Z,23.42
2022-08-19T15:21:48.911Z,23.46
2022-08-19T15:24:55.540Z,23.51
2022-08-19T15:28:01.944Z,23.49
2022-08-19T15:31:05.801Z,23.68
2022-08-19T15:34:09.372Z,23.74
2022-08-19T15:37:12.771Z,23.77
2022-08-19T15:40:17.517Z,24.19
2022-08-19T15:43:22.493Z,24.64
2022-08-19T15:46:29.437Z,25.04
2022-08-19T15:49:33.296Z,24.50
2022-08-19T15:52:36.713Z,24.46
2022-08-19T15:55:51.259Z,24.27
2022-08-19T15:59:12.200Z,24.82
2022-08-19T16:02:33.241Z,24.80
2022-08-19T16:05:54.836Z,25.74
2022-08-19T16:09:01.995Z,25.96
2022-08-19T16:12:08.726Z,25.98
2022-08-19T16:15:13.755Z,26.43
2022-08-19T16:18:17.106Z,27.29
2022-08-19T16:21:21.549Z,27.45
2022-08-19T16:24:28.065Z,27.44
2022-08-19T16:27:32.902Z,27.99
2022-08-19T16:30:37.536Z,27.86
2022-08-19T16:33:41.453Z,28.59
2022-08-19T16:36:45.888Z,28.30
2022-08-19T16:39:49.302Z,28.72
2022-08-19T16:42:54.090Z,28.46
2022-08-19T16:45:57.985Z,28.66
2022-08-19T16:49:01.475Z,28.71
2022-08-19T16:52:06.165Z,28.91
2022-08-19T16:55:09.594Z,29.17
2022-08-19T16:58:14.359Z,29.28
2022-08-19T17:01:18.049Z,29.03
2022-08-19T17:04:21.395Z,29.28
2022-08-19T17:07:24.765Z,29.71
2022-08-19T17:10:28.156Z,30.26
2022-08-19T17:13:32.905Z,29.91
2022-08-19T17:16:37.669Z,30.16
2022-08-19T17:19:42.597Z,30.67
2022-08-19T17:22:45.962Z,30.47
2022-08-19T17:25:50.939Z,31.12
2022-08-19T17:28:57.387Z,31.23
2022-08-19T17:32:01.035Z,31.31
2022-08-19T17:35:05.231Z,31.34
2022-08-19T17:38:09.696Z,31.66
2022-08-19T17:41:13.196Z,32.02
2022-08-19T17:44:18.988Z,32.25
2022-08-19T17:47:22.340Z,31.58
2022-08-19T17:50:26.028Z,31.74
2022-08-19T17:53:29.665Z,32.36
2022-08-19T17:56:32.956Z,32.19
2022-08-19T17:59:38.043Z,32.09
2022-08-19T18:02:53.313Z,32.22
2022-08-19T18:05:57.097Z,32.41
2022-08-19T18:09:00.382Z,32.45
2022-08-19T18:12:04.934Z,33.10
2022-08-19T18:15:11.071Z,33.24
2022-08-19T18:18:15.098Z,33.10
2022-08-19T18:21:19.360Z,33.21
2022-08-19T18:24:22.711Z,33.66
2022-08-19T18:27:27.171Z,33.46
2022-08-19T18:30:34.400Z,33.35
2022-08-19T18:33:44.208Z,33.40
2022-08-19T18:36:53.739Z,33.54
2022-08-19T18:40:15.936Z,33.61
2022-08-19T18:43:36.702Z,33.56
2022-08-19T18:47:07.053Z,33.66
2022-08-19T18:50:12.994Z,33.52
2022-08-19T18:53:17.246Z,33.64
2022-08-19T18:56:24.036Z,33.56
2022-08-19T18:59:29.316Z,33.87
2022-08-19T19:02:39.093Z,33.85
2022-08-19T19:05:42.338Z,33.77
2022-08-19T19:08:46.031Z,33.86
2022-08-19T19:11:52.895Z,34.29
2022-08-19T19:14:58.117Z,34.23
2022-08-19T19:18:02.800Z,34.49
2022-08-19T19:21:06.432Z,34.72
2022-08-19T19:24:11.832Z,34.86
2022-08-19T19:27:20.389Z,34.65
2022-08-19T19:30:26.027Z,34.58
2022-08-19T19:33:30.948Z,34.76
2022-08-19T19:36:34.441Z,34.53
2022-08-19T19:39:45.958Z,34.62
2022-08-19T19:42:51.961Z,34.96
2022-08-19T19:45:55.416Z,34.69
2022-08-19T19:49:00.755Z,34.71
2022-08-19T19:52:04.365Z,34.85
2022-08-19T19:55:09.600Z,35.13
2022-08-19T19:58:12.925Z,34.84
2022-08-19T20:01:21.054Z,35.24
2022-08-19T20:04:27.728Z,35.18
2022-08-19T20:07:44.798Z,35.61
2022-08-19T20:10:48.086Z,35.91
2022-08-19T20:13:51.429Z,36.13
2022-08-19T20:16:56.378Z,36.51
2022-08-19T20:20:01.681Z,36.12
2022-08-19T20:23:05.331Z,36.22
2022-08-19T20:26:12.134Z,36.51
2022-08-19T20:29:39.237Z,36.33
2022-08-19T20:32:46.620Z,36.15
2022-08-19T20:35:51.403Z,37.21
2022-08-19T20:38:54.889Z,37.48
2022-08-19T20:41:58.598Z,37.52
2022-08-19T20:45:04.194Z,37.63
2022-08-19T20:48:10.593Z,37.68
2022-08-19T20:51:15.796Z,37.46
2022-08-19T20:54:19.224Z,37.42
2022-08-19T20:57:22.577Z,37.86
2022-08-19T21:00:25.913Z,37.89
2022-08-19T21:03:31.474Z,37.96
2022-08-19T21:06:36.207Z,38.01
2022-08-19T21:09:39.561Z,38.89
2022-08-19T21:12:44.464Z,38.90
2022-08-19T21:15:48.281Z,38.94
2022-08-19T21:18:51.786Z,39.48
2022-08-19T21:21:56.480Z,39.29
2022-08-19T21:25:01.810Z,39.98
2022-08-19T21:28:06.075Z,39.80
2022-08-19T21:31:10.560Z,39.78
2022-08-19T21:34:14.382Z,40.36
2022-08-19T21:37:25.205Z,40.48
2022-08-19T21:40:29.930Z,40.63
2022-08-19T21:43:33.505Z,40.55
2022-08-19T21:46:37.599Z,40.14
2022-08-19T21:49:41.112Z,40.87
2022-08-19T21:52:46.842Z,40.89
2022-08-19T21:55:53.505Z,41.15
2022-08-19T21:58:57.181Z,41.57
2022-08-19T22:02:15.761Z,41.62
2022-08-19T22:05:24.730Z,41.48
2022-08-19T22:08:29.922Z,41.37
2022-08-19T22:11:33.987Z,41.99
2022-08-19T22:14:37.818Z,41.83
2022-08-19T22:17:42.066Z,41.86
2022-08-19T22:20:46.941Z,41.86
2022-08-19T22:23:51.671Z,42.41
2022-08-19T22:26:54.978Z,42.60
2022-08-19T22:29:58.339Z,43.10
2022-08-19T22:33:03.640Z,42.32
2022-08-19T22:36:08.605Z,41.82
2022-08-19T22:39:13.516Z,42.32
2022-08-19T22:42:20.198Z,41.92
2022-08-19T22:45:23.908Z,42.66
2022-08-19T22:48:29.201Z,42.64
2022-08-19T22:51:49.926Z,43.08
2022-08-19T22:54:57.056Z,43.25
2022-08-19T22:58:00.348Z,43.66
2022-08-19T23:01:03.820Z,43.78
2022-08-19T23:04:07.193Z,43.91
2022-08-19T23:07:10.627Z,43.42
2022-08-19T23:10:15.426Z,44.38
2022-08-19T23:13:31.924Z,43.17
2022-08-19T23:16:36.067Z,43.43
2022-08-19T23:19:39.685Z,43.71
2022-08-19T23:22:44.075Z,44.23
2022-08-19T23:25:50.344Z,43.56
2022-08-19T23:29:10.943Z,44.85
2022-08-19T23:32:16.131Z,44.43
2022-08-19T23:35:19.824Z,44.78
2022-08-19T23:38:24.065Z,44.87
2022-08-19T23:41:28.872Z,45.19
2022-08-19T23:44:32.195Z,45.05
2022-08-19T23:47:37.199Z,43.66
2022-08-19T23:50:46.549Z,43.72
2022-08-19T23:53:50.126Z,43.57
2022-08-19T23:56:54.971Z,43.34
2022-08-19T23:59:58.777Z,43.84
